createdAt,value
2019-04-21T00:01:08.053Z,11.93
2019-04-21T00:03:41.070Z,15.80
2019-04-21T00:06:22.384Z,12.23
2019-04-21T00:08:59.293Z,12.50
2019-04-21T00:11:29.906Z,14.17
2019-04-21T00:13:47.012Z,13.00
2019-04-21T00:16:10.862Z,10.10
2019-04-21T00:19:19.063Z,10.43
2019-04-21T00:21:49.491Z,11.00
2019-04-21T00:24:25.105Z,12.70
2019-04-21T00:27:02.501Z,11.67
2019-04-21T00:29:41.003Z,12.73
2019-04-21T00:32:03.001Z,12.03
2019-04-21T00:34:17.645Z,12.37
2019-04-21T00:36:57.284Z,10.47
2019-04-21T00:39:43.661Z,11.43
2019-04-21T00:42:05.496Z,14.07
2019-04-21T00:44:30.805Z,12.17
2019-04-21T00:47:05.425Z,11.27
2019-04-21T00:49:35.751Z,11.37
2019-04-21T00:52:49.187Z,10.37
2019-04-21T00:55:18.788Z,10.53
2019-04-21T00:57:38.845Z,10.03
2019-04-21T01:00:07.276Z,12.50
2019-04-21T01:02:41.328Z,11.37
2019-04-21T01:05:15.126Z,10.40
2019-04-21T01:07:35.815Z,10.77
2019-04-21T01:10:02.356Z,10.93
2019-04-21T01:12:38.007Z,9.93
2019-04-21T01:15:15.674Z,9.67
2019-04-21T01:17:40.868Z,10.07
2019-04-21T01:20:02.842Z,11.23
2019-04-21T01:22:19.294Z,10.70
2019-04-21T01:24:57.864Z,11.27
2019-04-21T01:27:39.854Z,11.77
2019-04-21T01:30:14.318Z,11.57
2019-04-21T01:32:46.876Z,12.17
2019-04-21T01:35:08.884Z,11.33
2019-04-21T01:37:44.127Z,12.10
2019-04-21T01:40:18.406Z,10.17
2019-04-21T01:42:48.141Z,10.60
2019-04-21T01:45:09.494Z,12.93
2019-04-21T01:47:44.684Z,12.07
2019-04-21T01:50:02.828Z,12.60
2019-04-21T01:52:49.897Z,11.40
2019-04-21T01:55:20.988Z,11.43
2019-04-21T01:58:15.324Z,10.67
2019-04-21T02:00:51.959Z,10.87
2019-04-21T02:06:07.670Z,11.53
2019-04-21T02:08:27.562Z,11.47
2019-04-21T02:11:07.550Z,10.93
2019-04-21T02:13:27.945Z,11.23
2019-04-21T02:16:02.054Z,11.53
2019-04-21T02:18:27.309Z,15.00
2019-04-21T02:20:50.107Z,12.40
2019-04-21T02:23:38.519Z,13.17
2019-04-21T02:26:03.860Z,11.13
2019-04-21T02:28:42.807Z,11.10
2019-04-21T02:31:20.608Z,13.40
2019-04-21T02:33:55.770Z,13.00
2019-04-21T02:39:00.271Z,12.93
2019-04-21T02:41:12.839Z,11.67
2019-04-21T02:46:23.738Z,11.83
2019-04-21T02:51:21.847Z,14.43
2019-04-21T02:54:32.362Z,11.57
2019-04-21T02:56:29.763Z,11.60
2019-04-21T02:59:03.131Z,12.67
2019-04-21T03:01:46.330Z,12.13
2019-04-21T03:04:30.238Z,14.23
2019-04-21T03:07:11.488Z,14.73
2019-04-21T03:09:35.823Z,12.43
2019-04-21T03:14:50.234Z,12.90
2019-04-21T03:17:05.728Z,13.20
2019-04-21T03:19:44.765Z,12.50
2019-04-21T03:22:14.194Z,13.63
2019-04-21T03:24:53.989Z,12.53
2019-04-21T03:27:18.179Z,15.63
2019-04-21T03:29:48.276Z,13.30
2019-04-21T03:35:14.959Z,13.17
2019-04-21T03:37:16.771Z,14.50
2019-04-21T03:39:48.578Z,14.37
2019-04-21T03:44:46.158Z,14.50
2019-04-21T03:52:20.112Z,14.70
2019-04-21T03:55:48.828Z,14.73
2019-04-21T03:58:04.643Z,14.13
2019-04-21T04:00:42.482Z,15.33
2019-04-21T04:03:42.197Z,16.40
2019-04-21T04:14:04.099Z,15.10
2019-04-21T04:16:37.885Z,17.53
2019-04-21T04:18:57.725Z,14.43
2019-04-21T04:24:22.625Z,17.97
2019-04-21T04:26:47.190Z,16.83
2019-04-21T04:29:12.333Z,12.60
2019-04-21T04:31:37.731Z,15.93
2019-04-21T04:34:18.769Z,14.60
2019-04-21T04:49:47.940Z,17.30
2019-04-21T04:52:31.406Z,15.23
2019-04-21T04:57:23.564Z,15.07
2019-04-21T04:59:47.796Z,16.00
2019-04-21T05:02:26.496Z,13.53
2019-04-21T05:04:59.020Z,13.90
2019-04-21T05:07:15.117Z,14.23
2019-04-21T05:09:46.603Z,12.73
2019-04-21T05:12:08.953Z,15.03
2019-04-21T05:14:46.733Z,15.17
2019-04-21T05:17:24.914Z,14.50
2019-04-21T05:20:05.908Z,13.23
2019-04-21T05:24:39.036Z,13.73
2019-04-21T05:27:07.492Z,12.80
2019-04-21T05:29:53.582Z,12.80
2019-04-21T05:32:28.285Z,12.40
2019-04-21T05:35:08.026Z,12.93
2019-04-21T05:37:47.401Z,12.57
2019-04-21T05:40:24.886Z,11.57
2019-04-21T05:42:59.831Z,12.40
2019-04-21T05:45:50.039Z,12.53
2019-04-21T05:48:24.212Z,13.43
2019-04-21T05:50:44.146Z,11.33
2019-04-21T05:53:25.353Z,13.83
2019-04-21T05:55:58.649Z,14.40
2019-04-21T05:58:25.914Z,11.87
2019-04-21T06:03:30.744Z,14.20
2019-04-21T06:08:31.904Z,12.17
2019-04-21T06:11:00.209Z,12.77
2019-04-21T06:16:04.015Z,12.87
2019-04-21T06:18:42.090Z,12.70
2019-04-21T06:21:05.706Z,12.97
2019-04-21T06:23:35.924Z,16.33
2019-04-21T06:26:19.849Z,12.47
2019-04-21T06:28:41.687Z,13.60
2019-04-21T06:33:41.743Z,9.93
2019-04-21T06:39:04.622Z,11.63
2019-04-21T06:41:31.513Z,11.70
2019-04-21T06:44:01.801Z,10.77
2019-04-21T06:51:45.530Z,12.67
2019-04-21T06:54:03.384Z,11.07
2019-04-21T06:56:39.126Z,12.00
2019-04-21T06:59:00.682Z,10.77
2019-04-21T07:01:38.995Z,10.70
2019-04-21T07:04:11.825Z,12.03
2019-04-21T07:06:45.733Z,10.80
2019-04-21T07:09:15.866Z,11.03
2019-04-21T07:11:36.825Z,10.93
2019-04-21T07:16:45.236Z,10.37
2019-04-21T07:19:23.467Z,10.40
2019-04-21T07:21:38.299Z,10.47
2019-04-21T07:24:15.766Z,11.70
2019-04-21T07:26:47.637Z,11.60
2019-04-21T07:29:15.785Z,11.30
2019-04-21T07:31:46.985Z,11.70
2019-04-21T07:34:19.599Z,10.60
2019-04-21T07:36:50.899Z,10.70
2019-04-21T07:39:10.698Z,13.80
2019-04-21T07:41:38.598Z,11.60
2019-04-21T07:44:04.586Z,12.83
2019-04-21T07:46:37.175Z,12.17
2019-04-21T07:49:43.602Z,11.03
2019-04-21T07:52:33.508Z,10.53
2019-04-21T07:55:10.907Z,10.43
2019-04-21T07:57:23.786Z,11.90
2019-04-21T08:00:21.062Z,11.50
2019-04-21T08:02:29.335Z,11.27
2019-04-21T08:05:20.003Z,11.33
2019-04-21T08:07:51.912Z,13.40
2019-04-21T08:10:14.469Z,13.97
2019-04-21T08:12:41.970Z,12.90
2019-04-21T08:15:23.447Z,15.50
2019-04-21T08:17:41.413Z,12.90
2019-04-21T08:20:16.796Z,12.37
2019-04-21T08:25:15.177Z,11.53
2019-04-21T08:30:22.848Z,14.77
2019-04-21T08:35:54.813Z,12.63
2019-04-21T08:37:48.102Z,14.00
2019-04-21T08:40:26.451Z,13.97
2019-04-21T08:42:54.017Z,12.70
2019-04-21T08:47:55.279Z,13.87
2019-04-21T08:50:20.545Z,14.33
2019-04-21T08:52:57.010Z,13.77
2019-04-21T08:56:04.129Z,13.53
2019-04-21T08:58:41.382Z,15.23
2019-04-21T09:01:38.345Z,12.37
2019-04-21T09:04:11.116Z,12.77
2019-04-21T09:09:11.812Z,13.33
2019-04-21T09:11:37.614Z,14.43
2019-04-21T09:14:07.302Z,13.17
2019-04-21T09:16:35.425Z,13.83
2019-04-21T09:19:04.689Z,12.97
2019-04-21T09:21:54.585Z,13.40
2019-04-21T09:24:13.299Z,14.60
2019-04-21T09:26:34.004Z,13.93
2019-04-21T09:29:04.310Z,16.40
2019-04-21T09:31:33.823Z,14.78
2019-04-21T09:34:03.179Z,16.93
2019-04-21T09:36:41.284Z,13.27
2019-04-21T09:39:18.256Z,14.73
2019-04-21T09:41:51.182Z,13.80
2019-04-21T09:44:30.207Z,13.35
2019-04-21T09:46:56.642Z,16.15
2019-04-21T09:49:27.420Z,15.37
2019-04-21T09:51:55.245Z,14.23
2019-04-21T09:54:28.464Z,15.32
2019-04-21T09:57:01.651Z,14.83
2019-04-21T09:59:29.969Z,16.43
2019-04-21T10:02:06.543Z,17.67
2019-04-21T10:04:26.698Z,16.35
2019-04-21T10:06:56.320Z,17.67
2019-04-21T10:09:26.444Z,16.90
2019-04-21T10:11:57.023Z,15.93
2019-04-21T10:14:26.428Z,18.15
2019-04-21T10:17:29.635Z,17.73
2019-04-21T10:19:58.793Z,18.77
2019-04-21T10:22:28.857Z,18.30
2019-04-21T10:24:58.507Z,16.02
2019-04-21T10:27:27.711Z,18.55
2019-04-21T10:29:58.022Z,17.55
2019-04-21T10:32:28.195Z,20.00
2019-04-21T10:34:59.190Z,18.50
2019-04-21T10:37:42.787Z,18.07
2019-04-21T10:40:00.010Z,17.52
2019-04-21T10:42:29.143Z,15.90
2019-04-21T10:44:58.884Z,15.18
2019-04-21T10:47:29.348Z,19.62
2019-04-21T10:49:58.414Z,15.25
2019-04-21T10:52:34.765Z,14.65
2019-04-21T10:55:20.745Z,16.80
2019-04-21T10:57:34.882Z,14.45
2019-04-21T11:00:05.829Z,13.68
2019-04-21T11:02:44.621Z,14.47
2019-04-21T11:05:14.572Z,14.47
2019-04-21T11:08:01.081Z,20.35
2019-04-21T11:10:18.497Z,15.08
2019-04-21T11:12:47.837Z,14.43
2019-04-21T11:15:17.185Z,15.95
2019-04-21T11:17:47.335Z,17.20
